sensor_id;sensor_type;location;lat;lon;timestamp;pressure;altitude;pressure_sealevel;temperature
75811;BMP280;64449;50.016;19.954;2024-01-11T00:02:13;99748.40;;;-7.42
75811;BMP280;64449;50.016;19.954;2024-01-11T00:04:40;99747.95;;;-7.41
75811;BMP280;64449;50.016;19.954;2024-01-11T00:07:05;99745.48;;;-7.39
75811;BMP280;64449;50.016;19.954;2024-01-11T00:09:31;99740.83;;;-7.37
75811;BMP280;64449;50.016;19.954;2024-01-11T00:11:56;99730.75;;;-7.35
75811;BMP280;64449;50.016;19.954;2024-01-11T00:14:22;99729.69;;;-7.34
75811;BMP280;64449;50.016;19.954;2024-01-11T00:16:47;99733.14;;;-7.32
75811;BMP280;64449;50.016;19.954;2024-01-11T00:19:12;99733.08;;;-7.31
75811;BMP280;64449;50.016;19.954;2024-01-11T00:21:38;99739.77;;;-7.29
75811;BMP280;64449;50.016;19.954;2024-01-11T00:24:03;99733.39;;;-7.26
75811;BMP280;64449;50.016;19.954;2024-01-11T00:26:28;99731.66;;;-7.24
75811;BMP280;64449;50.016;19.954;2024-01-11T00:28:54;99726.01;;;-7.24
75811;BMP280;64449;50.016;19.954;2024-01-11T00:31:19;99723.15;;;-7.24
75811;BMP280;64449;50.016;19.954;2024-01-11T00:33:44;99719.17;;;-7.26
75811;BMP280;64449;50.016;19.954;2024-01-11T00:36:10;99720.02;;;-7.26
75811;BMP280;64449;50.016;19.954;2024-01-11T00:38:35;99713.14;;;-7.30
75811;BMP280;64449;50.016;19.954;2024-01-11T00:41:01;99706.90;;;-7.31
75811;BMP280;64449;50.016;19.954;2024-01-11T00:43:26;99702.48;;;-7.30
75811;BMP280;64449;50.016;19.954;2024-01-11T00:45:51;99702.77;;;-7.33
75811;BMP280;64449;50.016;19.954;2024-01-11T00:48:17;99705.41;;;-7.36
75811;BMP280;64449;50.016;19.954;2024-01-11T00:50:42;99702.09;;;-7.40
75811;BMP280;64449;50.016;19.954;2024-01-11T00:53:07;99700.95;;;-7.45
75811;BMP280;64449;50.016;19.954;2024-01-11T00:55:34;99694.98;;;-7.50
75811;BMP280;64449;50.016;19.954;2024-01-11T00:58:00;99690.69;;;-7.55
75811;BMP280;64449;50.016;19.954;2024-01-11T01:00:25;99688.83;;;-7.59
75811;BMP280;64449;50.016;19.954;2024-01-11T01:02:51;99683.56;;;-7.64
75811;BMP280;64449;50.016;19.954;2024-01-11T01:05:16;99688.77;;;-7.68
75811;BMP280;64449;50.016;19.954;2024-01-11T01:07:42;99689.70;;;-7.73
75811;BMP280;64449;50.016;19.954;2024-01-11T01:10:07;99683.64;;;-7.76
75811;BMP280;64449;50.016;19.954;2024-01-11T01:12:33;99684.59;;;-7.80
75811;BMP280;64449;50.016;19.954;2024-01-11T01:14:59;99683.31;;;-7.83
75811;BMP280;64449;50.016;19.954;2024-01-11T01:17:24;99685.36;;;-7.86
75811;BMP280;64449;50.016;19.954;2024-01-11T01:19:50;99691.81;;;-7.88
75811;BMP280;64449;50.016;19.954;2024-01-11T01:22:15;99692.71;;;-7.90
75811;BMP280;64449;50.016;19.954;2024-01-11T01:24:40;99685.51;;;-7.89
75811;BMP280;64449;50.016;19.954;2024-01-11T01:27:06;99683.38;;;-7.89
75811;BMP280;64449;50.016;19.954;2024-01-11T01:29:31;99677.34;;;-7.90
75811;BMP280;64449;50.016;19.954;2024-01-11T01:31:56;99674.24;;;-7.91
75811;BMP280;64449;50.016;19.954;2024-01-11T01:34:22;99674.55;;;-7.91
75811;BMP280;64449;50.016;19.954;2024-01-11T01:36:47;99677.08;;;-7.90
75811;BMP280;64449;50.016;19.954;2024-01-11T01:39:13;99673.56;;;-7.90
75811;BMP280;64449;50.016;19.954;2024-01-11T01:41:38;99675.30;;;-7.89
75811;BMP280;64449;50.016;19.954;2024-01-11T01:44:04;99676.85;;;-7.88
75811;BMP280;64449;50.016;19.954;2024-01-11T01:46:29;99675.44;;;-7.86
75811;BMP280;64449;50.016;19.954;2024-01-11T01:48:57;99667.60;;;-7.84
75811;BMP280;64449;50.016;19.954;2024-01-11T01:51:24;99661.98;;;-7.82
75811;BMP280;64449;50.016;19.954;2024-01-11T01:53:53;99664.55;;;-7.80
75811;BMP280;64449;50.016;19.954;2024-01-11T01:56:20;99658.86;;;-7.79
75811;BMP280;64449;50.016;19.954;2024-01-11T01:58:48;99660.70;;;-7.78
75811;BMP280;64449;50.016;19.954;2024-01-11T02:01:15;99663.12;;;-7.76
75811;BMP280;64449;50.016;19.954;2024-01-11T02:03:41;99661.65;;;-7.76
75811;BMP280;64449;50.016;19.954;2024-01-11T02:06:08;99657.55;;;-7.77
75811;BMP280;64449;50.016;19.954;2024-01-11T02:08:34;99663.65;;;-7.78
75811;BMP280;64449;50.016;19.954;2024-01-11T02:11:00;99664.81;;;-7.78
75811;BMP280;64449;50.016;19.954;2024-01-11T02:13:26;99662.77;;;-7.78
75811;BMP280;64449;50.016;19.954;2024-01-11T02:15:51;99656.84;;;-7.77
75811;BMP280;64449;50.016;19.954;2024-01-11T02:18:17;99655.36;;;-7.75
75811;BMP280;64449;50.016;19.954;2024-01-11T02:20:43;99652.49;;;-7.72
75811;BMP280;64449;50.016;19.954;2024-01-11T02:23:14;99654.30;;;-7.69
75811;BMP280;64449;50.016;19.954;2024-01-11T02:25:40;99649.44;;;-7.66
75811;BMP280;64449;50.016;19.954;2024-01-11T02:28:05;99647.88;;;-7.63
75811;BMP280;64449;50.016;19.954;2024-01-11T02:30:31;99648.73;;;-7.60
75811;BMP280;64449;50.016;19.954;2024-01-11T02:32:57;99646.70;;;-7.58
75811;BMP280;64449;50.016;19.954;2024-01-11T02:35:22;99646.98;;;-7.57
75811;BMP280;64449;50.016;19.954;2024-01-11T02:37:49;99645.65;;;-7.55
75811;BMP280;64449;50.016;19.954;2024-01-11T02:40:15;99636.15;;;-7.55
75811;BMP280;64449;50.016;19.954;2024-01-11T02:42:41;99623.35;;;-7.57
75811;BMP280;64449;50.016;19.954;2024-01-11T02:45:07;99627.89;;;-7.59
75811;BMP280;64449;50.016;19.954;2024-01-11T02:47:32;99631.10;;;-7.61
75811;BMP280;64449;50.016;19.954;2024-01-11T02:49:58;99630.59;;;-7.64
75811;BMP280;64449;50.016;19.954;2024-01-11T02:52:23;99633.13;;;-7.66
75811;BMP280;64449;50.016;19.954;2024-01-11T02:54:49;99640.35;;;-7.66
75811;BMP280;64449;50.016;19.954;2024-01-11T02:57:14;99638.42;;;-7.68
75811;BMP280;64449;50.016;19.954;2024-01-11T02:59:41;99639.80;;;-7.71
75811;BMP280;64449;50.016;19.954;2024-01-11T03:02:07;99636.44;;;-7.74
75811;BMP280;64449;50.016;19.954;2024-01-11T03:04:32;99636.85;;;-7.76
75811;BMP280;64449;50.016;19.954;2024-01-11T03:06:58;99639.09;;;-7.77
75811;BMP280;64449;50.016;19.954;2024-01-11T03:09:23;99648.54;;;-7.77
75811;BMP280;64449;50.016;19.954;2024-01-11T03:11:48;99645.64;;;-7.78
75811;BMP280;64449;50.016;19.954;2024-01-11T03:14:14;99643.34;;;-7.79
75811;BMP280;64449;50.016;19.954;2024-01-11T03:16:39;99637.41;;;-7.80
75811;BMP280;64449;50.016;19.954;2024-01-11T03:19:05;99637.92;;;-7.80
75811;BMP280;64449;50.016;19.954;2024-01-11T03:21:31;99634.42;;;-7.79
75811;BMP280;64449;50.016;19.954;2024-01-11T03:23:56;99629.77;;;-7.77
75811;BMP280;64449;50.016;19.954;2024-01-11T03:26:22;99626.11;;;-7.76
75811;BMP280;64449;50.016;19.954;2024-01-11T03:28:47;99620.81;;;-7.75
75811;BMP280;64449;50.016;19.954;2024-01-11T03:31:13;99621.80;;;-7.72
75811;BMP280;64449;50.016;19.954;2024-01-11T03:33:39;99618.16;;;-7.68
75811;BMP280;64449;50.016;19.954;2024-01-11T03:36:08;99617.69;;;-7.65
75811;BMP280;64449;50.016;19.954;2024-01-11T03:38:34;99626.28;;;-7.62
75811;BMP280;64449;50.016;19.954;2024-01-11T03:40:59;99625.12;;;-7.59
75811;BMP280;64449;50.016;19.954;2024-01-11T03:43:25;99625.44;;;-7.57
75811;BMP280;64449;50.016;19.954;2024-01-11T03:45:50;99606.71;;;-7.55
75811;BMP280;64449;50.016;19.954;2024-01-11T03:48:16;99598.66;;;-7.53
75811;BMP280;64449;50.016;19.954;2024-01-11T03:50:41;99606.36;;;-7.51
75811;BMP280;64449;50.016;19.954;2024-01-11T03:53:06;99610.59;;;-7.46
75811;BMP280;64449;50.016;19.954;2024-01-11T03:55:33;99612.66;;;-7.40
75811;BMP280;64449;50.016;19.954;2024-01-11T03:57:58;99605.48;;;-7.33
75811;BMP280;64449;50.016;19.954;2024-01-11T04:00:24;99603.16;;;-7.27
75811;BMP280;64449;50.016;19.954;2024-01-11T04:02:49;99605.77;;;-7.23
75811;BMP280;64449;50.016;19.954;2024-01-11T04:05:15;99610.70;;;-7.18
75811;BMP280;64449;50.016;19.954;2024-01-11T04:07:41;99614.91;;;-7.15
75811;BMP280;64449;50.016;19.954;2024-01-11T04:10:07;99617.73;;;-7.11
75811;BMP280;64449;50.016;19.954;2024-01-11T04:12:35;99614.20;;;-7.09
75811;BMP280;64449;50.016;19.954;2024-01-11T04:15:01;99612.17;;;-7.07
75811;BMP280;64449;50.016;19.954;2024-01-11T04:17:27;99609.03;;;-7.06
75811;BMP280;64449;50.016;19.954;2024-01-11T04:19:52;99610.73;;;-7.06
75811;BMP280;64449;50.016;19.954;2024-01-11T04:22:18;99607.62;;;-7.07
75811;BMP280;64449;50.016;19.954;2024-01-11T04:24:43;99601.21;;;-7.09
75811;BMP280;64449;50.016;19.954;2024-01-11T04:27:09;99599.46;;;-7.11
75811;BMP280;64449;50.016;19.954;2024-01-11T04:29:34;99600.69;;;-7.13
75811;BMP280;64449;50.016;19.954;2024-01-11T04:31:59;99604.61;;;-7.13
75811;BMP280;64449;50.016;19.954;2024-01-11T04:34:26;99604.15;;;-7.14
75811;BMP280;64449;50.016;19.954;2024-01-11T04:36:52;99602.77;;;-7.16
75811;BMP280;64449;50.016;19.954;2024-01-11T04:39:17;99599.20;;;-7.17
75811;BMP280;64449;50.016;19.954;2024-01-11T04:41:43;99593.59;;;-7.18
75811;BMP280;64449;50.016;19.954;2024-01-11T04:44:08;99585.95;;;-7.20
75811;BMP280;64449;50.016;19.954;2024-01-11T04:46:34;99575.30;;;-7.22
75811;BMP280;64449;50.016;19.954;2024-01-11T04:49:00;99569.74;;;-7.23
75811;BMP280;64449;50.016;19.954;2024-01-11T04:51:25;99568.61;;;-7.25
75811;BMP280;64449;50.016;19.954;2024-01-11T04:53:51;99565.80;;;-7.28
75811;BMP280;64449;50.016;19.954;2024-01-11T04:56:16;99569.34;;;-7.30
75811;BMP280;64449;50.016;19.954;2024-01-11T04:58:43;99568.19;;;-7.32
75811;BMP280;64449;50.016;19.954;2024-01-11T05:01:16;99568.71;;;-7.33
75811;BMP280;64449;50.016;19.954;2024-01-11T05:03:42;99564.75;;;-7.34
75811;BMP280;64449;50.016;19.954;2024-01-11T05:06:08;99559.66;;;-7.37
75811;BMP280;64449;50.016;19.954;2024-01-11T05:08:34;99562.05;;;-7.39
75811;BMP280;64449;50.016;19.954;2024-01-11T05:10:59;99552.59;;;-7.42
75811;BMP280;64449;50.016;19.954;2024-01-11T05:13:24;99554.33;;;-7.44
75811;BMP280;64449;50.016;19.954;2024-01-11T05:15:50;99552.33;;;-7.46
75811;BMP280;64449;50.016;19.954;2024-01-11T05:18:15;99545.07;;;-7.48
75811;BMP280;64449;50.016;19.954;2024-01-11T05:20:41;99535.27;;;-7.49
75811;BMP280;64449;50.016;19.954;2024-01-11T05:23:06;99523.91;;;-7.50
75811;BMP280;64449;50.016;19.954;2024-01-11T05:25:32;99523.08;;;-7.52
75811;BMP280;64449;50.016;19.954;2024-01-11T05:28:03;99511.83;;;-7.53
75811;BMP280;64449;50.016;19.954;2024-01-11T05:30:29;99508.74;;;-7.53
75811;BMP280;64449;50.016;19.954;2024-01-11T05:32:55;99498.77;;;-7.53
75811;BMP280;64449;50.016;19.954;2024-01-11T05:35:22;99497.09;;;-7.53
75811;BMP280;64449;50.016;19.954;2024-01-11T05:37:50;99506.89;;;-7.54
75811;BMP280;64449;50.016;19.954;2024-01-11T05:40:15;99511.52;;;-7.51
75811;BMP280;64449;50.016;19.954;2024-01-11T05:42:41;99505.77;;;-7.49
75811;BMP280;64449;50.016;19.954;2024-01-11T05:45:06;99484.44;;;-7.45
75811;BMP280;64449;50.016;19.954;2024-01-11T05:47:32;99490.96;;;-7.41
75811;BMP280;64449;50.016;19.954;2024-01-11T05:49:57;99495.30;;;-7.36
75811;BMP280;64449;50.016;19.954;2024-01-11T05:52:23;99491.73;;;-7.32
75811;BMP280;64449;50.016;19.954;2024-01-11T05:54:48;99502.40;;;-7.28
75811;BMP280;64449;50.016;19.954;2024-01-11T05:57:14;99507.48;;;-7.24
75811;BMP280;64449;50.016;19.954;2024-01-11T05:59:45;99515.73;;;-7.21
75811;BMP280;64449;50.016;19.954;2024-01-11T06:02:13;99515.96;;;-7.17
75811;BMP280;64449;50.016;19.954;2024-01-11T06:04:39;99509.37;;;-7.13
75811;BMP280;64449;50.016;19.954;2024-01-11T06:07:05;99496.43;;;-7.09
75811;BMP280;64449;50.016;19.954;2024-01-11T06:09:30;99483.70;;;-7.04
75811;BMP280;64449;50.016;19.954;2024-01-11T06:11:56;99489.10;;;-7.00
75811;BMP280;64449;50.016;19.954;2024-01-11T06:14:21;99504.77;;;-6.95
75811;BMP280;64449;50.016;19.954;2024-01-11T06:16:46;99505.80;;;-6.91
75811;BMP280;64449;50.016;19.954;2024-01-11T06:19:12;99517.38;;;-6.87
75811;BMP280;64449;50.016;19.954;2024-01-11T06:21:37;99527.04;;;-6.82
75811;BMP280;64449;50.016;19.954;2024-01-11T06:24:03;99532.64;;;-6.79
75811;BMP280;64449;50.016;19.954;2024-01-11T06:26:29;99533.20;;;-6.75
75811;BMP280;64449;50.016;19.954;2024-01-11T06:28:55;99519.58;;;-6.72
75811;BMP280;64449;50.016;19.954;2024-01-11T06:31:21;99518.60;;;-6.69
75811;BMP280;64449;50.016;19.954;2024-01-11T06:33:46;99515.19;;;-6.67
75811;BMP280;64449;50.016;19.954;2024-01-11T06:36:12;99507.63;;;-6.66
75811;BMP280;64449;50.016;19.954;2024-01-11T06:38:37;99503.80;;;-6.66
75811;BMP280;64449;50.016;19.954;2024-01-11T06:41:03;99502.69;;;-6.67
75811;BMP280;64449;50.016;19.954;2024-01-11T06:43:28;99494.60;;;-6.68
75811;BMP280;64449;50.016;19.954;2024-01-11T06:45:54;99488.58;;;-6.68
75811;BMP280;64449;50.016;19.954;2024-01-11T06:48:19;99477.45;;;-6.68
75811;BMP280;64449;50.016;19.954;2024-01-11T06:50:45;99472.80;;;-6.71
75811;BMP280;64449;50.016;19.954;2024-01-11T06:53:10;99460.71;;;-6.73
75811;BMP280;64449;50.016;19.954;2024-01-11T06:55:36;99457.83;;;-6.75
75811;BMP280;64449;50.016;19.954;2024-01-11T06:58:01;99444.88;;;-6.80
75811;BMP280;64449;50.016;19.954;2024-01-11T07:00:27;99418.06;;;-6.85
75811;BMP280;64449;50.016;19.954;2024-01-11T07:02:53;99407.65;;;-6.90
75811;BMP280;64449;50.016;19.954;2024-01-11T07:05:19;99422.42;;;-6.94
75811;BMP280;64449;50.016;19.954;2024-01-11T07:07:44;99417.97;;;-6.97
75811;BMP280;64449;50.016;19.954;2024-01-11T07:10:10;99411.63;;;-6.97
75811;BMP280;64449;50.016;19.954;2024-01-11T07:12:36;99412.61;;;-6.94
75811;BMP280;64449;50.016;19.954;2024-01-11T07:15:04;99419.14;;;-6.90
75811;BMP280;64449;50.016;19.954;2024-01-11T07:17:30;99417.02;;;-6.84
75811;BMP280;64449;50.016;19.954;2024-01-11T07:19:55;99411.17;;;-6.77
75811;BMP280;64449;50.016;19.954;2024-01-11T07:22:21;99404.31;;;-6.71
75811;BMP280;64449;50.016;19.954;2024-01-11T07:24:46;99395.61;;;-6.67
75811;BMP280;64449;50.016;19.954;2024-01-11T07:27:12;99400.11;;;-6.61
75811;BMP280;64449;50.016;19.954;2024-01-11T07:29:37;99399.80;;;-6.53
75811;BMP280;64449;50.016;19.954;2024-01-11T07:32:03;99403.14;;;-6.42
75811;BMP280;64449;50.016;19.954;2024-01-11T07:34:29;99405.16;;;-6.30
75811;BMP280;64449;50.016;19.954;2024-01-11T07:36:55;99412.58;;;-6.17
75811;BMP280;64449;50.016;19.954;2024-01-11T07:39:20;99415.58;;;-6.05
75811;BMP280;64449;50.016;19.954;2024-01-11T07:41:47;99417.70;;;-5.93
75811;BMP280;64449;50.016;19.954;2024-01-11T07:44:13;99413.91;;;-5.81
75811;BMP280;64449;50.016;19.954;2024-01-11T07:46:38;99421.17;;;-5.70
75811;BMP280;64449;50.016;19.954;2024-01-11T07:49:03;99421.05;;;-5.56
75811;BMP280;64449;50.016;19.954;2024-01-11T07:51:29;99419.19;;;-5.44
75811;BMP280;64449;50.016;19.954;2024-01-11T07:53:55;99419.17;;;-5.33
75811;BMP280;64449;50.016;19.954;2024-01-11T07:56:20;99412.01;;;-5.22
75811;BMP280;64449;50.016;19.954;2024-01-11T07:58:45;99408.69;;;-5.08
75811;BMP280;64449;50.016;19.954;2024-01-11T08:01:11;99406.69;;;-4.94
75811;BMP280;64449;50.016;19.954;2024-01-11T08:03:38;99418.47;;;-4.74
75811;BMP280;64449;50.016;19.954;2024-01-11T08:06:04;99409.00;;;-4.50
75811;BMP280;64449;50.016;19.954;2024-01-11T08:08:33;99407.05;;;-4.26
75811;BMP280;64449;50.016;19.954;2024-01-11T08:10:59;99387.00;;;-4.16
75811;BMP280;64449;50.016;19.954;2024-01-11T08:13:24;99380.72;;;-4.06
75811;BMP280;64449;50.016;19.954;2024-01-11T08:15:49;99389.63;;;-4.01
75811;BMP280;64449;50.016;19.954;2024-01-11T08:18:18;99394.55;;;-3.89
75811;BMP280;64449;50.016;19.954;2024-01-11T08:20:43;99403.00;;;-3.67
75811;BMP280;64449;50.016;19.954;2024-01-11T08:23:09;99395.52;;;-3.46
75811;BMP280;64449;50.016;19.954;2024-01-11T08:25:35;99398.55;;;-3.43
75811;BMP280;64449;50.016;19.954;2024-01-11T08:28:00;99393.16;;;-3.45
75811;BMP280;64449;50.016;19.954;2024-01-11T08:30:26;99386.29;;;-3.40
75811;BMP280;64449;50.016;19.954;2024-01-11T08:32:51;99372.91;;;-3.32
75811;BMP280;64449;50.016;19.954;2024-01-11T08:35:16;99366.59;;;-3.28
75811;BMP280;64449;50.016;19.954;2024-01-11T08:37:42;99361.02;;;-3.30
75811;BMP280;64449;50.016;19.954;2024-01-11T08:40:08;99368.75;;;-3.31
75811;BMP280;64449;50.016;19.954;2024-01-11T08:42:34;99380.30;;;-3.30
75811;BMP280;64449;50.016;19.954;2024-01-11T08:45:00;99377.38;;;-3.27
75811;BMP280;64449;50.016;19.954;2024-01-11T08:47:31;99388.30;;;-3.18
75811;BMP280;64449;50.016;19.954;2024-01-11T08:49:57;99393.43;;;-3.08
75811;BMP280;64449;50.016;19.954;2024-01-11T08:52:22;99398.69;;;-2.98
75811;BMP280;64449;50.016;19.954;2024-01-11T08:54:48;99391.23;;;-2.86
75811;BMP280;64449;50.016;19.954;2024-01-11T08:57:14;99381.86;;;-2.74
75811;BMP280;64449;50.016;19.954;2024-01-11T08:59:40;99376.00;;;-2.69
75811;BMP280;64449;50.016;19.954;2024-01-11T09:02:06;99383.02;;;-2.69
75811;BMP280;64449;50.016;19.954;2024-01-11T09:04:32;99382.96;;;-2.67
75811;BMP280;64449;50.016;19.954;2024-01-11T09:06:59;99379.38;;;-2.66
75811;BMP280;64449;50.016;19.954;2024-01-11T09:09:25;99366.01;;;-2.66
75811;BMP280;64449;50.016;19.954;2024-01-11T09:11:50;99364.59;;;-2.62
75811;BMP280;64449;50.016;19.954;2024-01-11T09:14:16;99372.08;;;-2.55
75811;BMP280;64449;50.016;19.954;2024-01-11T09:16:41;99379.96;;;-2.49
75811;BMP280;64449;50.016;19.954;2024-01-11T09:19:07;99383.17;;;-2.47
75811;BMP280;64449;50.016;19.954;2024-01-11T09:21:32;99388.00;;;-2.43
75811;BMP280;64449;50.016;19.954;2024-01-11T09:23:57;99395.65;;;-2.35
75811;BMP280;64449;50.016;19.954;2024-01-11T09:26:23;99397.32;;;-2.28
75811;BMP280;64449;50.016;19.954;2024-01-11T09:28:49;99394.26;;;-2.22
75811;BMP280;64449;50.016;19.954;2024-01-11T09:31:14;99399.23;;;-2.14
75811;BMP280;64449;50.016;19.954;2024-01-11T09:33:40;99389.84;;;-2.09
75811;BMP280;64449;50.016;19.954;2024-01-11T09:36:07;99382.86;;;-2.09
75811;BMP280;64449;50.016;19.954;2024-01-11T09:38:33;99387.34;;;-2.10
75811;BMP280;64449;50.016;19.954;2024-01-11T09:41:07;99376.27;;;-2.08
75811;BMP280;64449;50.016;19.954;2024-01-11T09:43:34;99364.88;;;-2.05
75811;BMP280;64449;50.016;19.954;2024-01-11T09:46:03;99351.13;;;-2.02
75811;BMP280;64449;50.016;19.954;2024-01-11T09:48:31;99328.95;;;-1.99
75811;BMP280;64449;50.016;19.954;2024-01-11T09:50:59;99338.14;;;-1.88
75811;BMP280;64449;50.016;19.954;2024-01-11T09:53:25;99346.27;;;-1.78
75811;BMP280;64449;50.016;19.954;2024-01-11T09:55:53;99352.17;;;-1.68
75811;BMP280;64449;50.016;19.954;2024-01-11T09:58:20;99352.44;;;-1.55
75811;BMP280;64449;50.016;19.954;2024-01-11T10:00:48;99338.38;;;-1.46
75811;BMP280;64449;50.016;19.954;2024-01-11T10:03:15;99330.52;;;-1.35
75811;BMP280;64449;50.016;19.954;2024-01-11T10:05:41;99326.73;;;-1.23
75811;BMP280;64449;50.016;19.954;2024-01-11T10:08:07;99325.41;;;-1.09
75811;BMP280;64449;50.016;19.954;2024-01-11T10:10:33;99323.80;;;-0.94
75811;BMP280;64449;50.016;19.954;2024-01-11T10:12:58;99321.77;;;-0.77
75811;BMP280;64449;50.016;19.954;2024-01-11T10:15:24;99325.61;;;-0.61
75811;BMP280;64449;50.016;19.954;2024-01-11T10:17:49;99326.88;;;-0.47
75811;BMP280;64449;50.016;19.954;2024-01-11T10:20:15;99320.73;;;-0.39
75811;BMP280;64449;50.016;19.954;2024-01-11T10:22:42;99319.65;;;-0.30
75811;BMP280;64449;50.016;19.954;2024-01-11T10:25:13;99302.56;;;-0.23
75811;BMP280;64449;50.016;19.954;2024-01-11T10:27:43;99299.86;;;-0.19
75811;BMP280;64449;50.016;19.954;2024-01-11T10:30:11;99290.62;;;-0.15
75811;BMP280;64449;50.016;19.954;2024-01-11T10:32:39;99289.93;;;-0.12
75811;BMP280;64449;50.016;19.954;2024-01-11T10:35:05;99293.67;;;-0.11
75811;BMP280;64449;50.016;19.954;2024-01-11T10:37:32;99296.14;;;-0.10
75811;BMP280;64449;50.016;19.954;2024-01-11T10:40:05;99284.67;;;-0.09
75811;BMP280;64449;50.016;19.954;2024-01-11T10:42:44;99278.02;;;-0.11
75811;BMP280;64449;50.016;19.954;2024-01-11T10:45:18;99279.48;;;-0.08
75811;BMP280;64449;50.016;19.954;2024-01-11T10:48:01;99282.08;;;-0.07
75811;BMP280;64449;50.016;19.954;2024-01-11T10:50:36;99288.65;;;-0.05
75811;BMP280;64449;50.016;19.954;2024-01-11T10:55:55;99268.73;;;0.03
75811;BMP280;64449;50.016;19.954;2024-01-11T10:58:26;99255.91;;;0.05
75811;BMP280;64449;50.016;19.954;2024-01-11T11:00:53;99260.56;;;0.10
75811;BMP280;64449;50.016;19.954;2024-01-11T11:03:20;99257.77;;;0.15
75811;BMP280;64449;50.016;19.954;2024-01-11T11:05:48;99253.14;;;0.22
75811;BMP280;64449;50.016;19.954;2024-01-11T11:08:17;99250.30;;;0.28
75811;BMP280;64449;50.016;19.954;2024-01-11T11:10:45;99244.58;;;0.32
75811;BMP280;64449;50.016;19.954;2024-01-11T11:13:14;99245.35;;;0.34
75811;BMP280;64449;50.016;19.954;2024-01-11T11:15:43;99243.33;;;0.37
75811;BMP280;64449;50.016;19.954;2024-01-11T11:18:12;99238.48;;;0.40
75811;BMP280;64449;50.016;19.954;2024-01-11T11:20:39;99228.94;;;0.42
75811;BMP280;64449;50.016;19.954;2024-01-11T11:23:08;99228.33;;;0.44
75811;BMP280;64449;50.016;19.954;2024-01-11T11:25:39;99226.35;;;0.47
75811;BMP280;64449;50.016;19.954;2024-01-11T11:28:06;99221.38;;;0.52
75811;BMP280;64449;50.016;19.954;2024-01-11T11:30:37;99202.61;;;0.55
75811;BMP280;64449;50.016;19.954;2024-01-11T11:33:19;99205.52;;;0.57
75811;BMP280;64449;50.016;19.954;2024-01-11T11:35:51;99193.14;;;0.59
75811;BMP280;64449;50.016;19.954;2024-01-11T11:38:20;99192.65;;;0.58
75811;BMP280;64449;50.016;19.954;2024-01-11T11:40:47;99192.46;;;0.58
75811;BMP280;64449;50.016;19.954;2024-01-11T11:43:16;99174.16;;;0.56
75811;BMP280;64449;50.016;19.954;2024-01-11T11:45:43;99178.69;;;0.55
75811;BMP280;64449;50.016;19.954;2024-01-11T11:51:08;99178.87;;;0.53
75811;BMP280;64449;50.016;19.954;2024-01-11T11:53:35;99185.30;;;0.54
75811;BMP280;64449;50.016;19.954;2024-01-11T11:56:01;99179.41;;;0.53
75811;BMP280;64449;50.016;19.954;2024-01-11T11:58:30;99177.05;;;0.54
75811;BMP280;64449;50.016;19.954;2024-01-11T12:00:57;99179.35;;;0.57
75811;BMP280;64449;50.016;19.954;2024-01-11T12:03:40;99177.39;;;0.60
75811;BMP280;64449;50.016;19.954;2024-01-11T12:06:07;99172.20;;;0.62
75811;BMP280;64449;50.016;19.954;2024-01-11T12:08:37;99161.50;;;0.64
75811;BMP280;64449;50.016;19.954;2024-01-11T12:11:03;99162.10;;;0.67
75811;BMP280;64449;50.016;19.954;2024-01-11T12:13:29;99158.34;;;0.72
75811;BMP280;64449;50.016;19.954;2024-01-11T12:15:56;99162.63;;;0.78
75811;BMP280;64449;50.016;19.954;2024-01-11T12:18:22;99163.84;;;0.87
75811;BMP280;64449;50.016;19.954;2024-01-11T12:20:47;99152.66;;;0.94
75811;BMP280;64449;50.016;19.954;2024-01-11T12:23:13;99151.70;;;0.99
75811;BMP280;64449;50.016;19.954;2024-01-11T12:25:41;99139.00;;;1.01
75811;BMP280;64449;50.016;19.954;2024-01-11T12:28:07;99126.65;;;1.01
75811;BMP280;64449;50.016;19.954;2024-01-11T12:30:33;99126.98;;;1.01
75811;BMP280;64449;50.016;19.954;2024-01-11T12:32:59;99136.67;;;1.02
75811;BMP280;64449;50.016;19.954;2024-01-11T12:35:28;99141.38;;;1.02
75811;BMP280;64449;50.016;19.954;2024-01-11T12:37:58;99146.88;;;1.02
75811;BMP280;64449;50.016;19.954;2024-01-11T12:40:23;99131.23;;;1.01
75811;BMP280;64449;50.016;19.954;2024-01-11T12:42:49;99119.00;;;1.01
75811;BMP280;64449;50.016;19.954;2024-01-11T12:45:19;99118.08;;;1.02
75811;BMP280;64449;50.016;19.954;2024-01-11T12:47:44;99107.59;;;1.02
75811;BMP280;64449;50.016;19.954;2024-01-11T12:50:11;99093.54;;;1.04
75811;BMP280;64449;50.016;19.954;2024-01-11T12:52:40;99098.14;;;1.05
75811;BMP280;64449;50.016;19.954;2024-01-11T12:55:07;99092.71;;;1.09
75811;BMP280;64449;50.016;19.954;2024-01-11T12:57:34;99091.00;;;1.12
75811;BMP280;64449;50.016;19.954;2024-01-11T13:00:13;99081.89;;;1.13
75811;BMP280;64449;50.016;19.954;2024-01-11T13:02:42;99078.31;;;1.18
75811;BMP280;64449;50.016;19.954;2024-01-11T13:05:11;99084.51;;;1.22
75811;BMP280;64449;50.016;19.954;2024-01-11T13:07:37;99076.85;;;1.25
75811;BMP280;64449;50.016;19.954;2024-01-11T13:10:03;99086.09;;;1.28
75811;BMP280;64449;50.016;19.954;2024-01-11T13:12:29;99085.70;;;1.27
75811;BMP280;64449;50.016;19.954;2024-01-11T13:14:55;99083.02;;;1.27
75811;BMP280;64449;50.016;19.954;2024-01-11T13:17:21;99077.52;;;1.28
75811;BMP280;64449;50.016;19.954;2024-01-11T13:19:47;99079.83;;;1.30
75811;BMP280;64449;50.016;19.954;2024-01-11T13:22:12;99071.06;;;1.33
75811;BMP280;64449;50.016;19.954;2024-01-11T13:24:38;99069.53;;;1.34
75811;BMP280;64449;50.016;19.954;2024-01-11T13:27:03;99073.29;;;1.33
75811;BMP280;64449;50.016;19.954;2024-01-11T13:29:29;99074.89;;;1.34
75811;BMP280;64449;50.016;19.954;2024-01-11T13:31:55;99069.72;;;1.34
75811;BMP280;64449;50.016;19.954;2024-01-11T13:34:20;99072.51;;;1.34
75811;BMP280;64449;50.016;19.954;2024-01-11T13:36:46;99067.63;;;1.36
75811;BMP280;64449;50.016;19.954;2024-01-11T13:39:11;99065.65;;;1.34
75811;BMP280;64449;50.016;19.954;2024-01-11T13:41:36;99064.27;;;1.30
75811;BMP280;64449;50.016;19.954;2024-01-11T13:44:02;99066.11;;;1.24
75811;BMP280;64449;50.016;19.954;2024-01-11T13:46:30;99064.20;;;1.20
75811;BMP280;64449;50.016;19.954;2024-01-11T13:48:56;99061.15;;;1.18
75811;BMP280;64449;50.016;19.954;2024-01-11T13:51:21;99061.94;;;1.16
75811;BMP280;64449;50.016;19.954;2024-01-11T13:53:46;99070.64;;;1.12
75811;BMP280;64449;50.016;19.954;2024-01-11T13:56:12;99075.75;;;1.09
75811;BMP280;64449;50.016;19.954;2024-01-11T13:58:37;99092.13;;;1.06
75811;BMP280;64449;50.016;19.954;2024-01-11T14:01:03;99085.11;;;1.03